This is the latest recevied weather packets stored in our database for station/object YM2KRB-11. If no packets are shown the sender has not sent any weather packets the latest 10 day(s).
| Time | Temp. | Humidity | Pressure | Rain* | Wind** | Luminosity | Snow |
|---|---|---|---|---|---|---|---|
| 1777825342 | 12.22° C | 53% | 934.2 hPa | - | - | - | - |
| 1777824141 | 11.67° C | 53% | 934.4 hPa | - | - | - | - |
| 1777822940 | 12.22° C | 52% | 934.5 hPa | - | - | - | - |
| 1777821740 | 12.78° C | 52% | 934.8 hPa | - | - | - | - |
| 1777820539 | 12.78° C | 52% | 935 hPa | - | - | - | - |
| 1777819338 | 12.22° C | 54% | 934.8 hPa | - | - | - | - |
| 1777818137 | 12.78° C | 51% | 935.1 hPa | - | - | - | - |
| 1777816936 | 13.33° C | 51% | 935.1 hPa | - | - | - | - |
| 1777815736 | 13.33° C | 51% | 935.3 hPa | - | - | - | - |
| 1777814535 | 13.33° C | 49% | 935.5 hPa | - | - | - | - |
| 1777813334 | 13.33° C | 49% | 935.7 hPa | - | - | - | - |
| 1777812133 | 15.56° C | 44% | 935.6 hPa | - | - | - | - |
| 1777810933 | 15° C | 45% | 935.9 hPa | - | - | - | - |
| 1777809732 | 14.44° C | 46% | 936.3 hPa | - | - | - | - |
| 1777808531 | 15° C | 44% | 936.8 hPa | - | - | - | - |
| 1777807330 | 13.89° C | 45% | 937.1 hPa | - | - | - | - |
| 1777806129 | 14.44° C | 45% | 937.2 hPa | - | - | - | - |
| 1777804929 | 15° C | 45% | 937.4 hPa | - | - | - | - |
| 1777803728 | 14.44° C | 45% | 937.5 hPa | - | - | - | - |
| 1777802527 | 15° C | 43% | 937.8 hPa | - | - | - | - |
| 1777801326 | 15.56° C | 44% | 937.8 hPa | - | - | - | - |
| 1777800126 | 15° C | 43% | 937.9 hPa | - | - | - | - |
| 1777798925 | 18.33° C | 37% | 937.9 hPa | - | - | - | - |
| 1777797724 | 14.44° C | 42% | 938.1 hPa | - | - | - | - |
| 1777796523 | 15° C | 42% | 938.3 hPa | - | - | - | - |
* Rain since midnight (hover to see other rain measurements)
** Current wind speed in m/s (hover to see current wind gust speed)